<?xml version="1.0" encoding="UTF-8" standalone="no" ?>
<gpx xmlns="http://www.topografix.com/GPX/1/1" xmlns:xsi="http://www.w3.org/2001/XMLSchema-instance" xsi:schemaLocation="http://www.topografix.com/GPX/1/1 http://www.topografix.com/GPX/1/1/gpx.xsd" version="1.1" creator="VisuGPX - https://www.visugpx.com">
  <metadata>
    <name>23 - Peyrat le Château : Villards Quenouille (21km)</name>
    <desc><![CDATA[ Cet itinéraire fait partie de la collection de EquiLiberté : www.equiliberte.org .Circuit NON ACCESSIBLE aux attelages. Il est proposé par "Cheval en Creuse" , vous trouverez les infos sur leur site. www.chevalencreuse.com
]]></desc>
  </metadata>
  <trk>
    <name><![CDATA[23 - Peyrat le Château : Villards Quenouille (21km)]]></name>
    <trkseg>
      <trkpt lat="45.82095" lon="1.79932">
        <ele>504</ele>
        <time>2020-02-28T11:19:17Z</time>
      </trkpt>
      <trkpt lat="45.82109" lon="1.80029">
        <ele>496</ele>
        <time>2020-02-28T11:20:12Z</time>
      </trkpt>
      <trkpt lat="45.82195" lon="1.80112">
        <ele>494</ele>
        <time>2020-02-28T11:21:35Z</time>
      </trkpt>
      <trkpt lat="45.82191" lon="1.80247">
        <ele>495</ele>
        <time>2020-02-28T11:22:51Z</time>
      </trkpt>
      <trkpt lat="45.82141" lon="1.80289">
        <ele>503</ele>
        <time>2020-02-28T11:23:37Z</time>
      </trkpt>
      <trkpt lat="45.82043" lon="1.8028">
        <ele>502</ele>
        <time>2020-02-28T11:24:56Z</time>
      </trkpt>
      <trkpt lat="45.8194" lon="1.80384">
        <ele>514</ele>
        <time>2020-02-28T11:26:37Z</time>
      </trkpt>
      <trkpt lat="45.81801" lon="1.8063">
        <ele>523</ele>
        <time>2020-02-28T11:29:33Z</time>
      </trkpt>
      <trkpt lat="45.8178" lon="1.80836">
        <ele>544</ele>
        <time>2020-02-28T11:31:29Z</time>
      </trkpt>
      <trkpt lat="45.81816" lon="1.809">
        <ele>554</ele>
        <time>2020-02-28T11:32:15Z</time>
      </trkpt>
      <trkpt lat="45.8183" lon="1.81003">
        <ele>564</ele>
        <time>2020-02-28T11:33:14Z</time>
      </trkpt>
      <trkpt lat="45.81759" lon="1.81203">
        <ele>591</ele>
        <time>2020-02-28T11:35:19Z</time>
      </trkpt>
      <trkpt lat="45.81639" lon="1.81326">
        <ele>602</ele>
        <time>2020-02-28T11:37:17Z</time>
      </trkpt>
      <trkpt lat="45.8154" lon="1.81463">
        <ele>604</ele>
        <time>2020-02-28T11:39:07Z</time>
      </trkpt>
      <trkpt lat="45.81598" lon="1.81587">
        <ele>608</ele>
        <time>2020-02-28T11:40:31Z</time>
      </trkpt>
      <trkpt lat="45.81627" lon="1.81642">
        <ele>607</ele>
        <time>2020-02-28T11:41:09Z</time>
      </trkpt>
      <trkpt lat="45.81613" lon="1.81687">
        <ele>604</ele>
        <time>2020-02-28T11:41:37Z</time>
      </trkpt>
      <trkpt lat="45.81569" lon="1.81707">
        <ele>603</ele>
        <time>2020-02-28T11:42:14Z</time>
      </trkpt>
      <trkpt lat="45.81537" lon="1.81791">
        <ele>608</ele>
        <time>2020-02-28T11:43:07Z</time>
      </trkpt>
      <trkpt lat="45.81469" lon="1.8165">
        <ele>605</ele>
        <time>2020-02-28T11:44:43Z</time>
      </trkpt>
      <trkpt lat="45.8141" lon="1.81618">
        <ele>603</ele>
        <time>2020-02-28T11:45:33Z</time>
      </trkpt>
      <trkpt lat="45.81316" lon="1.81613">
        <ele>603</ele>
        <time>2020-02-28T11:46:49Z</time>
      </trkpt>
      <trkpt lat="45.81176" lon="1.81646">
        <ele>606</ele>
        <time>2020-02-28T11:48:42Z</time>
      </trkpt>
      <trkpt lat="45.81042" lon="1.81898">
        <ele>615</ele>
        <time>2020-02-28T11:51:39Z</time>
      </trkpt>
      <trkpt lat="45.80958" lon="1.8206">
        <ele>614</ele>
        <time>2020-02-28T11:53:32Z</time>
      </trkpt>
      <trkpt lat="45.80909" lon="1.82195">
        <ele>621</ele>
        <time>2020-02-28T11:54:57Z</time>
      </trkpt>
      <trkpt lat="45.80895" lon="1.8226">
        <ele>628</ele>
        <time>2020-02-28T11:55:35Z</time>
      </trkpt>
      <trkpt lat="45.80855" lon="1.82292">
        <ele>631</ele>
        <time>2020-02-28T11:56:11Z</time>
      </trkpt>
      <trkpt lat="45.80789" lon="1.82306">
        <ele>628</ele>
        <time>2020-02-28T11:57:05Z</time>
      </trkpt>
      <trkpt lat="45.80722" lon="1.82329">
        <ele>630</ele>
        <time>2020-02-28T11:58:00Z</time>
      </trkpt>
      <trkpt lat="45.80654" lon="1.82246">
        <ele>622</ele>
        <time>2020-02-28T11:59:11Z</time>
      </trkpt>
      <trkpt lat="45.80553" lon="1.82208">
        <ele>627</ele>
        <time>2020-02-28T12:00:35Z</time>
      </trkpt>
      <trkpt lat="45.80392" lon="1.82271">
        <ele>664</ele>
        <time>2020-02-28T12:02:49Z</time>
      </trkpt>
      <trkpt lat="45.80276" lon="1.82459">
        <ele>680</ele>
        <time>2020-02-28T12:05:09Z</time>
      </trkpt>
      <trkpt lat="45.80074" lon="1.82525">
        <ele>691</ele>
        <time>2020-02-28T12:07:55Z</time>
      </trkpt>
      <trkpt lat="45.80001" lon="1.82503">
        <ele>695</ele>
        <time>2020-02-28T12:08:54Z</time>
      </trkpt>
      <trkpt lat="45.79925" lon="1.82481">
        <ele>697</ele>
        <time>2020-02-28T12:09:56Z</time>
      </trkpt>
      <trkpt lat="45.79861" lon="1.82231">
        <ele>711</ele>
        <time>2020-02-28T12:12:25Z</time>
      </trkpt>
      <trkpt lat="45.7991" lon="1.82108">
        <ele>716</ele>
        <time>2020-02-28T12:13:44Z</time>
      </trkpt>
      <trkpt lat="45.79904" lon="1.82034">
        <ele>716</ele>
        <time>2020-02-28T12:14:26Z</time>
      </trkpt>
      <trkpt lat="45.7989" lon="1.8197">
        <ele>717</ele>
        <time>2020-02-28T12:15:03Z</time>
      </trkpt>
      <trkpt lat="45.79772" lon="1.82167">
        <ele>725</ele>
        <time>2020-02-28T12:17:28Z</time>
      </trkpt>
      <trkpt lat="45.79659" lon="1.82374">
        <ele>728</ele>
        <time>2020-02-28T12:19:55Z</time>
      </trkpt>
      <trkpt lat="45.79571" lon="1.82507">
        <ele>724</ele>
        <time>2020-02-28T12:21:37Z</time>
      </trkpt>
      <trkpt lat="45.7945" lon="1.82621">
        <ele>730</ele>
        <time>2020-02-28T12:23:33Z</time>
      </trkpt>
      <trkpt lat="45.79389" lon="1.82637">
        <ele>734</ele>
        <time>2020-02-28T12:24:23Z</time>
      </trkpt>
      <trkpt lat="45.79315" lon="1.8267">
        <ele>738</ele>
        <time>2020-02-28T12:25:25Z</time>
      </trkpt>
      <trkpt lat="45.79257" lon="1.82732">
        <ele>741</ele>
        <time>2020-02-28T12:26:23Z</time>
      </trkpt>
      <trkpt lat="45.79212" lon="1.82739">
        <ele>744</ele>
        <time>2020-02-28T12:26:59Z</time>
      </trkpt>
      <trkpt lat="45.79162" lon="1.82684">
        <ele>746</ele>
        <time>2020-02-28T12:27:50Z</time>
      </trkpt>
      <trkpt lat="45.79158" lon="1.82623">
        <ele>746</ele>
        <time>2020-02-28T12:28:24Z</time>
      </trkpt>
      <trkpt lat="45.79133" lon="1.8254">
        <ele>743</ele>
        <time>2020-02-28T12:29:14Z</time>
      </trkpt>
      <trkpt lat="45.79085" lon="1.8245">
        <ele>734</ele>
        <time>2020-02-28T12:30:17Z</time>
      </trkpt>
      <trkpt lat="45.79073" lon="1.82396">
        <ele>729</ele>
        <time>2020-02-28T12:30:49Z</time>
      </trkpt>
      <trkpt lat="45.79029" lon="1.82239">
        <ele>708</ele>
        <time>2020-02-28T12:32:24Z</time>
      </trkpt>
      <trkpt lat="45.79025" lon="1.82075">
        <ele>691</ele>
        <time>2020-02-28T12:33:55Z</time>
      </trkpt>
      <trkpt lat="45.78902" lon="1.82169">
        <ele>680</ele>
        <time>2020-02-28T12:35:47Z</time>
      </trkpt>
      <trkpt lat="45.7884" lon="1.82311">
        <ele>684</ele>
        <time>2020-02-28T12:37:20Z</time>
      </trkpt>
      <trkpt lat="45.78823" lon="1.82491">
        <ele>695</ele>
        <time>2020-02-28T12:39:02Z</time>
      </trkpt>
      <trkpt lat="45.78695" lon="1.82814">
        <ele>716</ele>
        <time>2020-02-28T12:42:29Z</time>
      </trkpt>
      <trkpt lat="45.78635" lon="1.82901">
        <ele>715</ele>
        <time>2020-02-28T12:43:37Z</time>
      </trkpt>
      <trkpt lat="45.78623" lon="1.8295">
        <ele>718</ele>
        <time>2020-02-28T12:44:06Z</time>
      </trkpt>
      <trkpt lat="45.78542" lon="1.82963">
        <ele>717</ele>
        <time>2020-02-28T12:45:12Z</time>
      </trkpt>
      <trkpt lat="45.78416" lon="1.83074">
        <ele>732</ele>
        <time>2020-02-28T12:47:10Z</time>
      </trkpt>
      <trkpt lat="45.78291" lon="1.83178">
        <ele>741</ele>
        <time>2020-02-28T12:49:06Z</time>
      </trkpt>
      <trkpt lat="45.78252" lon="1.83243">
        <ele>740</ele>
        <time>2020-02-28T12:49:54Z</time>
      </trkpt>
      <trkpt lat="45.78326" lon="1.83219">
        <ele>745</ele>
        <time>2020-02-28T12:50:54Z</time>
      </trkpt>
      <trkpt lat="45.78391" lon="1.83232">
        <ele>750</ele>
        <time>2020-02-28T12:51:47Z</time>
      </trkpt>
      <trkpt lat="45.7857" lon="1.83381">
        <ele>762</ele>
        <time>2020-02-28T12:54:33Z</time>
      </trkpt>
      <trkpt lat="45.78625" lon="1.83387">
        <ele>760</ele>
        <time>2020-02-28T12:55:17Z</time>
      </trkpt>
      <trkpt lat="45.78682" lon="1.83348">
        <ele>761</ele>
        <time>2020-02-28T12:56:07Z</time>
      </trkpt>
      <trkpt lat="45.78894" lon="1.83301">
        <ele>764</ele>
        <time>2020-02-28T12:58:59Z</time>
      </trkpt>
      <trkpt lat="45.7889" lon="1.83404">
        <ele>762</ele>
        <time>2020-02-28T12:59:57Z</time>
      </trkpt>
      <trkpt lat="45.78766" lon="1.83585">
        <ele>747</ele>
        <time>2020-02-28T13:02:18Z</time>
      </trkpt>
      <trkpt lat="45.78739" lon="1.8372">
        <ele>742</ele>
        <time>2020-02-28T13:03:37Z</time>
      </trkpt>
      <trkpt lat="45.78793" lon="1.83958">
        <ele>740</ele>
        <time>2020-02-28T13:05:57Z</time>
      </trkpt>
      <trkpt lat="45.7884" lon="1.84002">
        <ele>735</ele>
        <time>2020-02-28T13:06:42Z</time>
      </trkpt>
      <trkpt lat="45.78863" lon="1.84092">
        <ele>741</ele>
        <time>2020-02-28T13:07:35Z</time>
      </trkpt>
      <trkpt lat="45.78899" lon="1.8413">
        <ele>740</ele>
        <time>2020-02-28T13:08:11Z</time>
      </trkpt>
      <trkpt lat="45.78962" lon="1.84146">
        <ele>736</ele>
        <time>2020-02-28T13:09:02Z</time>
      </trkpt>
      <trkpt lat="45.79011" lon="1.84187">
        <ele>738</ele>
        <time>2020-02-28T13:09:48Z</time>
      </trkpt>
      <trkpt lat="45.79277" lon="1.84079">
        <ele>728</ele>
        <time>2020-02-28T13:13:29Z</time>
      </trkpt>
      <trkpt lat="45.79319" lon="1.84098">
        <ele>728</ele>
        <time>2020-02-28T13:14:04Z</time>
      </trkpt>
      <trkpt lat="45.79487" lon="1.84054">
        <ele>718</ele>
        <time>2020-02-28T13:16:21Z</time>
      </trkpt>
      <trkpt lat="45.79478" lon="1.8401">
        <ele>719</ele>
        <time>2020-02-28T13:16:46Z</time>
      </trkpt>
      <trkpt lat="45.79567" lon="1.83912">
        <ele>732</ele>
        <time>2020-02-28T13:18:16Z</time>
      </trkpt>
      <trkpt lat="45.79869" lon="1.83829">
        <ele>738</ele>
        <time>2020-02-28T13:22:23Z</time>
      </trkpt>
      <trkpt lat="45.79918" lon="1.83903">
        <ele>727</ele>
        <time>2020-02-28T13:23:20Z</time>
      </trkpt>
      <trkpt lat="45.80012" lon="1.83902">
        <ele>711</ele>
        <time>2020-02-28T13:24:35Z</time>
      </trkpt>
      <trkpt lat="45.80081" lon="1.83949">
        <ele>702</ele>
        <time>2020-02-28T13:25:36Z</time>
      </trkpt>
      <trkpt lat="45.80259" lon="1.83809">
        <ele>688</ele>
        <time>2020-02-28T13:28:18Z</time>
      </trkpt>
      <trkpt lat="45.80304" lon="1.83816">
        <ele>686</ele>
        <time>2020-02-28T13:28:55Z</time>
      </trkpt>
      <trkpt lat="45.80414" lon="1.83943">
        <ele>679</ele>
        <time>2020-02-28T13:30:48Z</time>
      </trkpt>
      <trkpt lat="45.8049" lon="1.84007">
        <ele>673</ele>
        <time>2020-02-28T13:31:58Z</time>
      </trkpt>
      <trkpt lat="45.80512" lon="1.83981">
        <ele>670</ele>
        <time>2020-02-28T13:32:21Z</time>
      </trkpt>
      <trkpt lat="45.80575" lon="1.83942">
        <ele>666</ele>
        <time>2020-02-28T13:33:16Z</time>
      </trkpt>
      <trkpt lat="45.80624" lon="1.83961">
        <ele>661</ele>
        <time>2020-02-28T13:33:57Z</time>
      </trkpt>
      <trkpt lat="45.80695" lon="1.83963">
        <ele>654</ele>
        <time>2020-02-28T13:34:54Z</time>
      </trkpt>
      <trkpt lat="45.8075" lon="1.84033">
        <ele>654</ele>
        <time>2020-02-28T13:35:52Z</time>
      </trkpt>
      <trkpt lat="45.80746" lon="1.84146">
        <ele>660</ele>
        <time>2020-02-28T13:36:56Z</time>
      </trkpt>
      <trkpt lat="45.80793" lon="1.84142">
        <ele>660</ele>
        <time>2020-02-28T13:37:33Z</time>
      </trkpt>
      <trkpt lat="45.80837" lon="1.84164">
        <ele>660</ele>
        <time>2020-02-28T13:38:11Z</time>
      </trkpt>
      <trkpt lat="45.80922" lon="1.84157">
        <ele>652</ele>
        <time>2020-02-28T13:39:19Z</time>
      </trkpt>
      <trkpt lat="45.80958" lon="1.84196">
        <ele>653</ele>
        <time>2020-02-28T13:39:55Z</time>
      </trkpt>
      <trkpt lat="45.81039" lon="1.8415">
        <ele>648</ele>
        <time>2020-02-28T13:41:05Z</time>
      </trkpt>
      <trkpt lat="45.81237" lon="1.84148">
        <ele>650</ele>
        <time>2020-02-28T13:43:43Z</time>
      </trkpt>
      <trkpt lat="45.80995" lon="1.84382">
        <ele>687</ele>
        <time>2020-02-28T13:47:37Z</time>
      </trkpt>
      <trkpt lat="45.80955" lon="1.84511">
        <ele>698</ele>
        <time>2020-02-28T13:48:56Z</time>
      </trkpt>
      <trkpt lat="45.80843" lon="1.84621">
        <ele>694</ele>
        <time>2020-02-28T13:50:44Z</time>
      </trkpt>
      <trkpt lat="45.80778" lon="1.84782">
        <ele>689</ele>
        <time>2020-02-28T13:52:28Z</time>
      </trkpt>
      <trkpt lat="45.80835" lon="1.84776">
        <ele>695</ele>
        <time>2020-02-28T13:53:14Z</time>
      </trkpt>
      <trkpt lat="45.80903" lon="1.8482">
        <ele>700</ele>
        <time>2020-02-28T13:54:14Z</time>
      </trkpt>
      <trkpt lat="45.80983" lon="1.84755">
        <ele>700</ele>
        <time>2020-02-28T13:55:27Z</time>
      </trkpt>
      <trkpt lat="45.8103" lon="1.84774">
        <ele>700</ele>
        <time>2020-02-28T13:56:06Z</time>
      </trkpt>
      <trkpt lat="45.8114" lon="1.84689">
        <ele>693</ele>
        <time>2020-02-28T13:57:46Z</time>
      </trkpt>
      <trkpt lat="45.81181" lon="1.84721">
        <ele>688</ele>
        <time>2020-02-28T13:58:24Z</time>
      </trkpt>
      <trkpt lat="45.81199" lon="1.84759">
        <ele>686</ele>
        <time>2020-02-28T13:58:49Z</time>
      </trkpt>
      <trkpt lat="45.812" lon="1.84856">
        <ele>685</ele>
        <time>2020-02-28T13:59:44Z</time>
      </trkpt>
      <trkpt lat="45.81231" lon="1.84907">
        <ele>679</ele>
        <time>2020-02-28T14:00:21Z</time>
      </trkpt>
      <trkpt lat="45.8129" lon="1.84868">
        <ele>677</ele>
        <time>2020-02-28T14:01:13Z</time>
      </trkpt>
      <trkpt lat="45.81329" lon="1.84887">
        <ele>672</ele>
        <time>2020-02-28T14:01:46Z</time>
      </trkpt>
      <trkpt lat="45.81345" lon="1.8497">
        <ele>668</ele>
        <time>2020-02-28T14:02:34Z</time>
      </trkpt>
      <trkpt lat="45.81384" lon="1.84925">
        <ele>669</ele>
        <time>2020-02-28T14:03:14Z</time>
      </trkpt>
      <trkpt lat="45.81527" lon="1.84506">
        <ele>632</ele>
        <time>2020-02-28T14:07:35Z</time>
      </trkpt>
      <trkpt lat="45.81616" lon="1.84498">
        <ele>626</ele>
        <time>2020-02-28T14:08:46Z</time>
      </trkpt>
      <trkpt lat="45.81658" lon="1.8444">
        <ele>625</ele>
        <time>2020-02-28T14:09:33Z</time>
      </trkpt>
      <trkpt lat="45.81795" lon="1.84365">
        <ele>633</ele>
        <time>2020-02-28T14:11:30Z</time>
      </trkpt>
      <trkpt lat="45.81914" lon="1.84425">
        <ele>646</ele>
        <time>2020-02-28T14:13:11Z</time>
      </trkpt>
      <trkpt lat="45.8198" lon="1.8445">
        <ele>647</ele>
        <time>2020-02-28T14:14:06Z</time>
      </trkpt>
      <trkpt lat="45.82038" lon="1.84427">
        <ele>649</ele>
        <time>2020-02-28T14:14:54Z</time>
      </trkpt>
      <trkpt lat="45.82108" lon="1.84442">
        <ele>650</ele>
        <time>2020-02-28T14:15:51Z</time>
      </trkpt>
      <trkpt lat="45.82182" lon="1.84477">
        <ele>647</ele>
        <time>2020-02-28T14:16:53Z</time>
      </trkpt>
      <trkpt lat="45.82255" lon="1.84486">
        <ele>647</ele>
        <time>2020-02-28T14:17:52Z</time>
      </trkpt>
      <trkpt lat="45.82318" lon="1.84454">
        <ele>652</ele>
        <time>2020-02-28T14:18:45Z</time>
      </trkpt>
      <trkpt lat="45.82376" lon="1.84427">
        <ele>654</ele>
        <time>2020-02-28T14:19:34Z</time>
      </trkpt>
      <trkpt lat="45.82489" lon="1.84175">
        <ele>644</ele>
        <time>2020-02-28T14:22:21Z</time>
      </trkpt>
      <trkpt lat="45.82614" lon="1.83968">
        <ele>634</ele>
        <time>2020-02-28T14:24:54Z</time>
      </trkpt>
      <trkpt lat="45.82761" lon="1.83664">
        <ele>611</ele>
        <time>2020-02-28T14:28:21Z</time>
      </trkpt>
      <trkpt lat="45.82654" lon="1.83459">
        <ele>601</ele>
        <time>2020-02-28T14:30:44Z</time>
      </trkpt>
      <trkpt lat="45.82713" lon="1.83324">
        <ele>614</ele>
        <time>2020-02-28T14:32:12Z</time>
      </trkpt>
      <trkpt lat="45.82781" lon="1.83265">
        <ele>614</ele>
        <time>2020-02-28T14:33:16Z</time>
      </trkpt>
      <trkpt lat="45.82806" lon="1.83214">
        <ele>612</ele>
        <time>2020-02-28T14:33:51Z</time>
      </trkpt>
      <trkpt lat="45.82765" lon="1.83111">
        <ele>610</ele>
        <time>2020-02-28T14:34:57Z</time>
      </trkpt>
      <trkpt lat="45.82702" lon="1.83089">
        <ele>609</ele>
        <time>2020-02-28T14:35:49Z</time>
      </trkpt>
      <trkpt lat="45.82657" lon="1.83025">
        <ele>609</ele>
        <time>2020-02-28T14:36:40Z</time>
      </trkpt>
      <trkpt lat="45.82617" lon="1.83032">
        <ele>608</ele>
        <time>2020-02-28T14:37:12Z</time>
      </trkpt>
      <trkpt lat="45.82505" lon="1.83011">
        <ele>603</ele>
        <time>2020-02-28T14:38:42Z</time>
      </trkpt>
      <trkpt lat="45.82469" lon="1.82992">
        <ele>603</ele>
        <time>2020-02-28T14:39:13Z</time>
      </trkpt>
      <trkpt lat="45.82446" lon="1.82953">
        <ele>601</ele>
        <time>2020-02-28T14:39:42Z</time>
      </trkpt>
      <trkpt lat="45.8234" lon="1.82967">
        <ele>590</ele>
        <time>2020-02-28T14:41:07Z</time>
      </trkpt>
      <trkpt lat="45.8229" lon="1.82871">
        <ele>587</ele>
        <time>2020-02-28T14:42:14Z</time>
      </trkpt>
      <trkpt lat="45.82235" lon="1.82968">
        <ele>584</ele>
        <time>2020-02-28T14:43:23Z</time>
      </trkpt>
      <trkpt lat="45.82126" lon="1.82962">
        <ele>594</ele>
        <time>2020-02-28T14:44:51Z</time>
      </trkpt>
      <trkpt lat="45.82078" lon="1.82905">
        <ele>598</ele>
        <time>2020-02-28T14:45:41Z</time>
      </trkpt>
      <trkpt lat="45.82128" lon="1.82856">
        <ele>595</ele>
        <time>2020-02-28T14:46:29Z</time>
      </trkpt>
      <trkpt lat="45.82094" lon="1.82795">
        <ele>593</ele>
        <time>2020-02-28T14:47:13Z</time>
      </trkpt>
      <trkpt lat="45.82005" lon="1.82677">
        <ele>589</ele>
        <time>2020-02-28T14:48:50Z</time>
      </trkpt>
      <trkpt lat="45.81995" lon="1.82533">
        <ele>576</ele>
        <time>2020-02-28T14:50:11Z</time>
      </trkpt>
      <trkpt lat="45.81972" lon="1.82481">
        <ele>574</ele>
        <time>2020-02-28T14:50:45Z</time>
      </trkpt>
      <trkpt lat="45.81894" lon="1.82476">
        <ele>580</ele>
        <time>2020-02-28T14:51:47Z</time>
      </trkpt>
      <trkpt lat="45.81872" lon="1.82444">
        <ele>583</ele>
        <time>2020-02-28T14:52:13Z</time>
      </trkpt>
      <trkpt lat="45.81908" lon="1.82366">
        <ele>589</ele>
        <time>2020-02-28T14:53:05Z</time>
      </trkpt>
      <trkpt lat="45.81966" lon="1.8235">
        <ele>582</ele>
        <time>2020-02-28T14:53:52Z</time>
      </trkpt>
      <trkpt lat="45.81984" lon="1.82147">
        <ele>588</ele>
        <time>2020-02-28T14:55:46Z</time>
      </trkpt>
      <trkpt lat="45.82028" lon="1.82076">
        <ele>586</ele>
        <time>2020-02-28T14:56:39Z</time>
      </trkpt>
      <trkpt lat="45.82038" lon="1.81992">
        <ele>589</ele>
        <time>2020-02-28T14:57:27Z</time>
      </trkpt>
      <trkpt lat="45.82088" lon="1.81991">
        <ele>593</ele>
        <time>2020-02-28T14:58:07Z</time>
      </trkpt>
      <trkpt lat="45.82101" lon="1.81879">
        <ele>595</ele>
        <time>2020-02-28T14:59:10Z</time>
      </trkpt>
      <trkpt lat="45.82059" lon="1.81844">
        <ele>595</ele>
        <time>2020-02-28T14:59:49Z</time>
      </trkpt>
      <trkpt lat="45.82009" lon="1.81818">
        <ele>595</ele>
        <time>2020-02-28T15:00:32Z</time>
      </trkpt>
      <trkpt lat="45.81937" lon="1.8171">
        <ele>600</ele>
        <time>2020-02-28T15:01:55Z</time>
      </trkpt>
      <trkpt lat="45.81945" lon="1.81665">
        <ele>606</ele>
        <time>2020-02-28T15:02:21Z</time>
      </trkpt>
      <trkpt lat="45.82035" lon="1.81587">
        <ele>604</ele>
        <time>2020-02-28T15:03:45Z</time>
      </trkpt>
      <trkpt lat="45.82106" lon="1.81431">
        <ele>615</ele>
        <time>2020-02-28T15:05:29Z</time>
      </trkpt>
      <trkpt lat="45.82102" lon="1.81335">
        <ele>620</ele>
        <time>2020-02-28T15:06:23Z</time>
      </trkpt>
      <trkpt lat="45.82137" lon="1.8127">
        <ele>617</ele>
        <time>2020-02-28T15:07:09Z</time>
      </trkpt>
      <trkpt lat="45.82115" lon="1.8111">
        <ele>621</ele>
        <time>2020-02-28T15:08:40Z</time>
      </trkpt>
      <trkpt lat="45.82302" lon="1.80966">
        <ele>625</ele>
        <time>2020-02-28T15:11:30Z</time>
      </trkpt>
      <trkpt lat="45.82332" lon="1.80914">
        <ele>621</ele>
        <time>2020-02-28T15:12:07Z</time>
      </trkpt>
      <trkpt lat="45.82477" lon="1.80926">
        <ele>609</ele>
        <time>2020-02-28T15:14:03Z</time>
      </trkpt>
      <trkpt lat="45.82572" lon="1.81009">
        <ele>616</ele>
        <time>2020-02-28T15:15:33Z</time>
      </trkpt>
      <trkpt lat="45.82603" lon="1.8097">
        <ele>618</ele>
        <time>2020-02-28T15:16:06Z</time>
      </trkpt>
      <trkpt lat="45.82621" lon="1.80835">
        <ele>612</ele>
        <time>2020-02-28T15:17:22Z</time>
      </trkpt>
      <trkpt lat="45.82625" lon="1.80751">
        <ele>603</ele>
        <time>2020-02-28T15:18:09Z</time>
      </trkpt>
      <trkpt lat="45.8268" lon="1.80696">
        <ele>589</ele>
        <time>2020-02-28T15:19:03Z</time>
      </trkpt>
      <trkpt lat="45.82763" lon="1.80708">
        <ele>583</ele>
        <time>2020-02-28T15:20:10Z</time>
      </trkpt>
      <trkpt lat="45.82885" lon="1.80588">
        <ele>558</ele>
        <time>2020-02-28T15:22:08Z</time>
      </trkpt>
      <trkpt lat="45.829" lon="1.80516">
        <ele>552</ele>
        <time>2020-02-28T15:22:50Z</time>
      </trkpt>
      <trkpt lat="45.82854" lon="1.80375">
        <ele>549</ele>
        <time>2020-02-28T15:24:17Z</time>
      </trkpt>
      <trkpt lat="45.82822" lon="1.80356">
        <ele>548</ele>
        <time>2020-02-28T15:24:45Z</time>
      </trkpt>
      <trkpt lat="45.82762" lon="1.80399">
        <ele>538</ele>
        <time>2020-02-28T15:25:38Z</time>
      </trkpt>
      <trkpt lat="45.82644" lon="1.80291">
        <ele>534</ele>
        <time>2020-02-28T15:27:30Z</time>
      </trkpt>
      <trkpt lat="45.82597" lon="1.8024">
        <ele>529</ele>
        <time>2020-02-28T15:28:18Z</time>
      </trkpt>
      <trkpt lat="45.82531" lon="1.80163">
        <ele>521</ele>
        <time>2020-02-28T15:29:26Z</time>
      </trkpt>
      <trkpt lat="45.8245" lon="1.80112">
        <ele>510</ele>
        <time>2020-02-28T15:30:36Z</time>
      </trkpt>
      <trkpt lat="45.82383" lon="1.80033">
        <ele>505</ele>
        <time>2020-02-28T15:31:46Z</time>
      </trkpt>
      <trkpt lat="45.82289" lon="1.80034">
        <ele>508</ele>
        <time>2020-02-28T15:33:01Z</time>
      </trkpt>
      <trkpt lat="45.82235" lon="1.80066">
        <ele>504</ele>
        <time>2020-02-28T15:33:48Z</time>
      </trkpt>
      <trkpt lat="45.8218" lon="1.80051">
        <ele>502</ele>
        <time>2020-02-28T15:34:33Z</time>
      </trkpt>
      <trkpt lat="45.82128" lon="1.80006">
        <ele>502</ele>
        <time>2020-02-28T15:35:21Z</time>
      </trkpt>
      <trkpt lat="45.82101" lon="1.79939">
        <ele>505</ele>
        <time>2020-02-28T15:36:05Z</time>
      </trkpt>
      <trkpt lat="45.82096" lon="1.79932">
        <ele>504</ele>
        <time>2020-02-28T15:36:10Z</time>
      </trkpt>
    </trkseg>
  </trk>
</gpx>